Chatfield, Texas
Current Conditions -  °F | °C
As of 3:53 PM on Wednesday 22 Oct 2014 (Local Time) from KCRS Reporting Station
Clear Clear  
Wind Chill: 80°   Ceiling: Unl
Heat Index: 80°   Visibility: 10mi
Dew Point: 55°   Wind: 6mph
Humidity: 42%   Direction: 110°ESE
Pressure: 30.08"   Gusts: NA
Location:  32.24°N, 96.41°W
Report Text: KCRS 222053Z AUTO 11005KT 10SM CLR 27/13 A3008 RMK AO2 SLP183 T02670128 56022
Loading
Personal Weather Stations






























Interactive Weather Map
Tropical Storm Tracking
New forecast layout! Learn more

10-Day Weather Forecast

Advertisements
Track Severe Weather on mobile